sensor_id;sensor_type;location;lat;lon;timestamp;pressure;altitude;pressure_sealevel;temperature;humidity
48796;BME280;34607;48.520;-1.330;2023-04-06T00:01:06;100515.19;;;10.70;94.20
48796;BME280;34607;48.520;-1.330;2023-04-06T00:03:33;100502.91;;;10.59;94.37
48796;BME280;34607;48.520;-1.330;2023-04-06T00:06:02;100497.75;;;10.59;94.43
48796;BME280;34607;48.520;-1.330;2023-04-06T00:08:30;100493.34;;;10.55;94.44
48796;BME280;34607;48.520;-1.330;2023-04-06T00:10:57;100494.72;;;10.38;94.76
48796;BME280;34607;48.520;-1.330;2023-04-06T00:13:24;100488.59;;;10.33;95.28
48796;BME280;34607;48.520;-1.330;2023-04-06T00:15:51;100496.22;;;10.26;95.83
48796;BME280;34607;48.520;-1.330;2023-04-06T00:18:18;100487.56;;;10.26;95.83
48796;BME280;34607;48.520;-1.330;2023-04-06T00:20:46;100496.03;;;10.17;95.98
48796;BME280;34607;48.520;-1.330;2023-04-06T00:23:14;100484.91;;;10.21;96.40
48796;BME280;34607;48.520;-1.330;2023-04-06T00:25:41;100484.69;;;10.12;96.64
48796;BME280;34607;48.520;-1.330;2023-04-06T00:28:08;100472.63;;;10.11;96.71
48796;BME280;34607;48.520;-1.330;2023-04-06T00:30:36;100474.03;;;9.97;97.19
48796;BME280;34607;48.520;-1.330;2023-04-06T00:33:03;100477.41;;;9.92;97.71
48796;BME280;34607;48.520;-1.330;2023-04-06T00:35:30;100466.19;;;9.92;98.09
48796;BME280;34607;48.520;-1.330;2023-04-06T00:37:57;100468.75;;;9.92;98.03
48796;BME280;34607;48.520;-1.330;2023-04-06T00:40:26;100461.91;;;9.92;98.22
48796;BME280;34607;48.520;-1.330;2023-04-06T00:42:54;100467.06;;;9.92;98.15
48796;BME280;34607;48.520;-1.330;2023-04-06T00:45:21;100468.00;;;9.96;98.05
48796;BME280;34607;48.520;-1.330;2023-04-06T00:47:48;100469.19;;;10.12;97.87
48796;BME280;34607;48.520;-1.330;2023-04-06T00:50:15;100467.69;;;10.23;97.44
48796;BME280;34607;48.520;-1.330;2023-04-06T00:52:43;100470.34;;;10.26;97.14
48796;BME280;34607;48.520;-1.330;2023-04-06T00:55:10;100459.19;;;10.30;97.07
48796;BME280;34607;48.520;-1.330;2023-04-06T00:57:42;100455.75;;;10.30;96.90
48796;BME280;34607;48.520;-1.330;2023-04-06T01:00:10;100446.31;;;10.32;97.02
48796;BME280;34607;48.520;-1.330;2023-04-06T01:02:38;100446.41;;;10.37;97.15
48796;BME280;34607;48.520;-1.330;2023-04-06T01:05:07;100436.69;;;10.26;97.05
48796;BME280;34607;48.520;-1.330;2023-04-06T01:07:45;100435.69;;;10.18;97.84
48796;BME280;34607;48.520;-1.330;2023-04-06T01:10:23;100430.38;;;10.12;98.14
48796;BME280;34607;48.520;-1.330;2023-04-06T01:12:53;100412.16;;;10.07;98.31
48796;BME280;34607;48.520;-1.330;2023-04-06T01:15:40;100413.88;;;10.07;98.63
48796;BME280;34607;48.520;-1.330;2023-04-06T01:18:09;100423.44;;;10.09;98.53
48796;BME280;34607;48.520;-1.330;2023-04-06T01:20:42;100422.53;;;10.09;98.61
48796;BME280;34607;48.520;-1.330;2023-04-06T01:23:11;100421.75;;;10.11;98.39
48796;BME280;34607;48.520;-1.330;2023-04-06T01:25:45;100417.34;;;10.07;98.23
48796;BME280;34607;48.520;-1.330;2023-04-06T01:28:12;100419.88;;;10.04;98.54
48796;BME280;34607;48.520;-1.330;2023-04-06T01:31:02;100419.72;;;9.97;98.58
48796;BME280;34607;48.520;-1.330;2023-04-06T01:33:41;100412.75;;;9.92;98.88
48796;BME280;34607;48.520;-1.330;2023-04-06T01:36:12;100411.97;;;9.97;99.25
48796;BME280;34607;48.520;-1.330;2023-04-06T01:38:40;100409.38;;;9.97;99.20
48796;BME280;34607;48.520;-1.330;2023-04-06T01:41:08;100407.66;;;9.96;99.41
48796;BME280;34607;48.520;-1.330;2023-04-06T01:43:47;100407.50;;;9.89;99.89
48796;BME280;34607;48.520;-1.330;2023-04-06T01:46:15;100399.75;;;9.89;99.77
48796;BME280;34607;48.520;-1.330;2023-04-06T01:48:43;100400.66;;;9.91;99.81
48796;BME280;34607;48.520;-1.330;2023-04-06T01:51:21;100410.97;;;9.90;99.94
48796;BME280;34607;48.520;-1.330;2023-04-06T01:53:58;100405.78;;;9.90;99.95
48796;BME280;34607;48.520;-1.330;2023-04-06T01:56:58;100409.03;;;9.80;100.00
48796;BME280;34607;48.520;-1.330;2023-04-06T01:59:32;100405.63;;;9.81;100.00
48796;BME280;34607;48.520;-1.330;2023-04-06T02:02:03;100404.97;;;9.91;100.00
48796;BME280;34607;48.520;-1.330;2023-04-06T02:04:33;100410.16;;;9.92;99.77
48796;BME280;34607;48.520;-1.330;2023-04-06T02:07:08;100400.59;;;9.88;99.62
48796;BME280;34607;48.520;-1.330;2023-04-06T02:09:37;100400.59;;;9.88;99.72
48796;BME280;34607;48.520;-1.330;2023-04-06T02:12:08;100397.16;;;9.89;99.77
48796;BME280;34607;48.520;-1.330;2023-04-06T02:14:35;100398.94;;;9.90;99.43
48796;BME280;34607;48.520;-1.330;2023-04-06T02:17:03;100395.44;;;9.90;99.52
48796;BME280;34607;48.520;-1.330;2023-04-06T02:19:30;100385.72;;;9.78;99.98
48796;BME280;34607;48.520;-1.330;2023-04-06T02:21:57;100398.47;;;9.69;100.00
48796;BME280;34607;48.520;-1.330;2023-04-06T02:24:24;100383.84;;;9.71;100.00
48796;BME280;34607;48.520;-1.330;2023-04-06T02:26:53;100385.78;;;9.81;100.00
48796;BME280;34607;48.520;-1.330;2023-04-06T02:29:20;100381.50;;;9.83;100.00
48796;BME280;34607;48.520;-1.330;2023-04-06T02:31:48;100384.06;;;9.82;100.00
48796;BME280;34607;48.520;-1.330;2023-04-06T02:34:16;100371.91;;;9.76;100.00
48796;BME280;34607;48.520;-1.330;2023-04-06T02:36:47;100388.38;;;9.81;100.00
48796;BME280;34607;48.520;-1.330;2023-04-06T02:39:14;100385.03;;;9.87;100.00
48796;BME280;34607;48.520;-1.330;2023-04-06T02:41:42;100347.56;;;9.65;100.00
48796;BME280;34607;48.520;-1.330;2023-04-06T02:44:11;100378.13;;;9.86;100.00
48796;BME280;34607;48.520;-1.330;2023-04-06T02:46:43;100378.88;;;9.80;100.00
48796;BME280;34607;48.520;-1.330;2023-04-06T02:49:10;100388.41;;;9.83;100.00
48796;BME280;34607;48.520;-1.330;2023-04-06T02:51:37;100378.88;;;9.80;100.00
48796;BME280;34607;48.520;-1.330;2023-04-06T02:54:18;100388.25;;;9.73;100.00
48796;BME280;34607;48.520;-1.330;2023-04-06T02:56:45;100382.13;;;9.71;100.00
48796;BME280;34607;48.520;-1.330;2023-04-06T02:59:14;100392.66;;;9.79;100.00
48796;BME280;34607;48.520;-1.330;2023-04-06T03:01:48;100396.13;;;9.81;100.00
48796;BME280;34607;48.520;-1.330;2023-04-06T03:04:15;100384.94;;;9.81;100.00
48796;BME280;34607;48.520;-1.330;2023-04-06T03:06:42;100376.31;;;9.82;99.91
48796;BME280;34607;48.520;-1.330;2023-04-06T03:09:24;100377.13;;;9.79;99.76
48796;BME280;34607;48.520;-1.330;2023-04-06T03:11:51;100381.50;;;9.83;99.71
48796;BME280;34607;48.520;-1.330;2023-04-06T03:14:20;100375.44;;;9.81;99.38
48796;BME280;34607;48.520;-1.330;2023-04-06T03:16:48;100376.13;;;9.72;99.26
48796;BME280;34607;48.520;-1.330;2023-04-06T03:19:19;100377.84;;;9.72;99.23
48796;BME280;34607;48.520;-1.330;2023-04-06T03:21:47;100372.66;;;9.70;99.39
48796;BME280;34607;48.520;-1.330;2023-04-06T03:24:15;100367.41;;;9.67;99.34
48796;BME280;34607;48.520;-1.330;2023-04-06T03:26:42;100369.97;;;9.66;99.35
48796;BME280;34607;48.520;-1.330;2023-04-06T03:29:09;100364.72;;;9.63;99.27
48796;BME280;34607;48.520;-1.330;2023-04-06T03:31:38;100370.00;;;9.67;99.39
48796;BME280;34607;48.520;-1.330;2023-04-06T03:34:13;100372.53;;;9.64;99.43
48796;BME280;34607;48.520;-1.330;2023-04-06T03:36:40;100364.69;;;9.61;99.27
48796;BME280;34607;48.520;-1.330;2023-04-06T03:39:07;100364.78;;;9.66;99.33
48796;BME280;34607;48.520;-1.330;2023-04-06T03:41:38;100360.50;;;9.66;99.06
48796;BME280;34607;48.520;-1.330;2023-04-06T03:44:34;100360.28;;;9.55;99.64
48796;BME280;34607;48.520;-1.330;2023-04-06T03:47:04;100351.91;;;9.67;99.48
48796;BME280;34607;48.520;-1.330;2023-04-06T03:49:31;100353.59;;;9.65;99.41
48796;BME280;34607;48.520;-1.330;2023-04-06T03:52:00;100350.91;;;9.61;99.40
48796;BME280;34607;48.520;-1.330;2023-04-06T03:54:28;100344.69;;;9.52;99.63
48796;BME280;34607;48.520;-1.330;2023-04-06T03:56:55;100354.94;;;9.46;99.95
48796;BME280;34607;48.520;-1.330;2023-04-06T03:59:26;100343.72;;;9.47;100.00
48796;BME280;34607;48.520;-1.330;2023-04-06T04:01:53;100348.91;;;9.47;100.00
48796;BME280;34607;48.520;-1.330;2023-04-06T04:04:21;100333.28;;;9.41;100.00
48796;BME280;34607;48.520;-1.330;2023-04-06T04:06:48;100348.91;;;9.47;100.00
48796;BME280;34607;48.520;-1.330;2023-04-06T04:09:15;100345.28;;;9.37;100.00
48796;BME280;34607;48.520;-1.330;2023-04-06T04:11:43;100341.88;;;9.40;100.00
48796;BME280;34607;48.520;-1.330;2023-04-06T04:14:10;100332.47;;;9.44;100.00
48796;BME280;34607;48.520;-1.330;2023-04-06T04:16:37;100343.59;;;9.40;100.00
48796;BME280;34607;48.520;-1.330;2023-04-06T04:19:04;100306.16;;;9.21;100.00
48796;BME280;34607;48.520;-1.330;2023-04-06T04:21:33;100338.47;;;9.41;100.00
48796;BME280;34607;48.520;-1.330;2023-04-06T04:24:07;100342.59;;;9.33;100.00
48796;BME280;34607;48.520;-1.330;2023-04-06T04:26:36;100339.16;;;9.34;100.00
48796;BME280;34607;48.520;-1.330;2023-04-06T04:29:05;100334.94;;;9.37;100.00
48796;BME280;34607;48.520;-1.330;2023-04-06T04:31:35;100340.81;;;9.32;100.00
48796;BME280;34607;48.520;-1.330;2023-04-06T04:34:05;100343.41;;;9.32;100.00
48796;BME280;34607;48.520;-1.330;2023-04-06T04:36:35;100341.78;;;9.37;100.00
48796;BME280;34607;48.520;-1.330;2023-04-06T04:39:05;100343.47;;;9.35;100.00
48796;BME280;34607;48.520;-1.330;2023-04-06T04:41:37;100348.66;;;9.35;100.00
48796;BME280;34607;48.520;-1.330;2023-04-06T04:44:07;100349.47;;;9.32;100.00
48796;BME280;34607;48.520;-1.330;2023-04-06T04:46:34;100339.09;;;9.31;100.00
48796;BME280;34607;48.520;-1.330;2023-04-06T04:49:02;100345.09;;;9.30;100.00
48796;BME280;34607;48.520;-1.330;2023-04-06T04:51:30;100339.16;;;9.34;100.00
48796;BME280;34607;48.520;-1.330;2023-04-06T04:54:12;100335.63;;;9.29;100.00
48796;BME280;34607;48.520;-1.330;2023-04-06T04:56:41;100325.34;;;9.33;100.00
48796;BME280;34607;48.520;-1.330;2023-04-06T04:59:28;100334.66;;;9.25;100.00
48796;BME280;34607;48.520;-1.330;2023-04-06T05:02:02;100335.59;;;9.27;100.00
48796;BME280;34607;48.520;-1.330;2023-04-06T05:04:39;100331.28;;;9.28;100.00
48796;BME280;34607;48.520;-1.330;2023-04-06T05:07:09;100319.25;;;9.30;100.00
48796;BME280;34607;48.520;-1.330;2023-04-06T05:09:40;100319.25;;;9.30;100.00
48796;BME280;34607;48.520;-1.330;2023-04-06T05:12:09;100308.06;;;9.29;100.00
48796;BME280;34607;48.520;-1.330;2023-04-06T05:14:46;100325.34;;;9.33;100.00
48796;BME280;34607;48.520;-1.330;2023-04-06T05:17:16;100322.69;;;9.29;100.00
48796;BME280;34607;48.520;-1.330;2023-04-06T05:19:43;100321.72;;;9.25;100.00
48796;BME280;34607;48.520;-1.330;2023-04-06T05:22:14;100316.63;;;9.28;100.00
48796;BME280;34607;48.520;-1.330;2023-04-06T05:24:48;100320.00;;;9.24;100.00
48796;BME280;34607;48.520;-1.330;2023-04-06T05:27:15;100325.22;;;9.26;100.00
48796;BME280;34607;48.520;-1.330;2023-04-06T05:29:43;100326.91;;;9.25;100.00
48796;BME280;34607;48.520;-1.330;2023-04-06T05:32:10;100314.94;;;9.29;100.00
48796;BME280;34607;48.520;-1.330;2023-04-06T05:34:37;100316.53;;;9.22;100.00
48796;BME280;34607;48.520;-1.330;2023-04-06T05:37:05;100311.41;;;9.24;100.00
48796;BME280;34607;48.520;-1.330;2023-04-06T05:39:33;100315.06;;;9.35;100.00
48796;BME280;34607;48.520;-1.330;2023-04-06T05:42:04;100315.13;;;9.38;100.00
48796;BME280;34607;48.520;-1.330;2023-04-06T05:44:55;100326.44;;;9.43;100.00
48796;BME280;34607;48.520;-1.330;2023-04-06T05:47:22;100318.59;;;9.40;100.00
48796;BME280;34607;48.520;-1.330;2023-04-06T05:50:01;100314.34;;;9.42;100.00
48796;BME280;34607;48.520;-1.330;2023-04-06T05:52:33;100317.72;;;9.38;100.00
48796;BME280;34607;48.520;-1.330;2023-04-06T05:55:00;100313.38;;;9.37;100.00
48796;BME280;34607;48.520;-1.330;2023-04-06T05:57:29;100314.22;;;9.36;100.00
48796;BME280;34607;48.520;-1.330;2023-04-06T05:59:56;100315.97;;;9.37;100.00
48796;BME280;34607;48.520;-1.330;2023-04-06T06:02:27;100308.28;;;9.40;100.00
48796;BME280;34607;48.520;-1.330;2023-04-06T06:04:57;100314.34;;;9.42;100.00
48796;BME280;34607;48.520;-1.330;2023-04-06T06:07:26;100319.56;;;9.45;100.00
48796;BME280;34607;48.520;-1.330;2023-04-06T06:09:59;100304.63;;;9.29;100.00
48796;BME280;34607;48.520;-1.330;2023-04-06T06:12:32;100326.50;;;9.46;100.00
48796;BME280;34607;48.520;-1.330;2023-04-06T06:15:00;100321.28;;;9.45;100.00
48796;BME280;34607;48.520;-1.330;2023-04-06T06:17:29;100326.50;;;9.46;100.00
48796;BME280;34607;48.520;-1.330;2023-04-06T06:19:56;100326.47;;;9.45;100.00
48796;BME280;34607;48.520;-1.330;2023-04-06T06:22:26;100323.09;;;9.49;100.00
48796;BME280;34607;48.520;-1.330;2023-04-06T06:24:53;100329.94;;;9.47;100.00
48796;BME280;34607;48.520;-1.330;2023-04-06T06:27:20;100337.69;;;9.47;100.00
48796;BME280;34607;48.520;-1.330;2023-04-06T06:29:49;100336.81;;;9.45;100.00
48796;BME280;34607;48.520;-1.330;2023-04-06T06:32:16;100339.41;;;9.46;100.00
48796;BME280;34607;48.520;-1.330;2023-04-06T06:34:47;100338.84;;;9.60;100.00
48796;BME280;34607;48.520;-1.330;2023-04-06T06:37:14;100331.19;;;9.66;100.00
48796;BME280;34607;48.520;-1.330;2023-04-06T06:39:41;100330.22;;;9.61;100.00
48796;BME280;34607;48.520;-1.330;2023-04-06T06:42:08;100329.47;;;9.65;100.00
48796;BME280;34607;48.520;-1.330;2023-04-06T06:44:54;100307.91;;;9.66;100.00
48796;BME280;34607;48.520;-1.330;2023-04-06T06:47:21;100312.44;;;9.78;100.00
48796;BME280;34607;48.520;-1.330;2023-04-06T06:49:48;100322.91;;;9.82;100.00
48796;BME280;34607;48.520;-1.330;2023-04-06T06:52:15;100323.84;;;9.87;100.00
48796;BME280;34607;48.520;-1.330;2023-04-06T06:54:43;100331.72;;;9.93;100.00
48796;BME280;34607;48.520;-1.330;2023-04-06T06:57:10;100339.66;;;10.03;100.00
48796;BME280;34607;48.520;-1.330;2023-04-06T06:59:37;100328.44;;;10.04;100.00
48796;BME280;34607;48.520;-1.330;2023-04-06T07:02:06;100340.78;;;10.19;100.00
48796;BME280;34607;48.520;-1.330;2023-04-06T07:04:33;100340.00;;;10.23;100.00
48796;BME280;34607;48.520;-1.330;2023-04-06T07:07:00;100335.81;;;10.31;100.00
48796;BME280;34607;48.520;-1.330;2023-04-06T07:09:29;100346.31;;;10.37;100.00
48796;BME280;34607;48.520;-1.330;2023-04-06T07:11:56;100354.13;;;10.39;100.00
48796;BME280;34607;48.520;-1.330;2023-04-06T07:14:23;100363.56;;;10.35;100.00
48796;BME280;34607;48.520;-1.330;2023-04-06T07:16:52;100370.44;;;10.36;100.00
48796;BME280;34607;48.520;-1.330;2023-04-06T07:19:20;100366.19;;;10.40;100.00
48796;BME280;34607;48.520;-1.330;2023-04-06T07:21:47;100366.03;;;10.30;100.00
48796;BME280;34607;48.520;-1.330;2023-04-06T07:24:15;100367.81;;;10.33;100.00
48796;BME280;34607;48.520;-1.330;2023-04-06T07:26:42;100366.16;;;10.37;100.00
48796;BME280;34607;48.520;-1.330;2023-04-06T07:29:10;100370.44;;;10.35;100.00
48796;BME280;34607;48.520;-1.330;2023-04-06T07:31:38;100372.13;;;10.33;100.00
48796;BME280;34607;48.520;-1.330;2023-04-06T07:34:06;100369.59;;;10.36;100.00
48796;BME280;34607;48.520;-1.330;2023-04-06T07:36:34;100368.69;;;10.34;100.00
48796;BME280;34607;48.520;-1.330;2023-04-06T07:39:02;100369.56;;;10.34;100.00
48796;BME280;34607;48.520;-1.330;2023-04-06T07:41:30;100372.22;;;10.37;100.00
48796;BME280;34607;48.520;-1.330;2023-04-06T07:43:57;100377.44;;;10.40;100.00
48796;BME280;34607;48.520;-1.330;2023-04-06T07:46:24;100383.53;;;10.44;100.00
48796;BME280;34607;48.520;-1.330;2023-04-06T07:48:53;100390.38;;;10.39;100.00
48796;BME280;34607;48.520;-1.330;2023-04-06T07:51:20;100405.16;;;10.46;100.00
48796;BME280;34607;48.520;-1.330;2023-04-06T07:53:50;100394.94;;;10.55;100.00
48796;BME280;34607;48.520;-1.330;2023-04-06T07:56:17;100406.31;;;10.63;100.00
48796;BME280;34607;48.520;-1.330;2023-04-06T07:58:44;100407.25;;;10.68;100.00
48796;BME280;34607;48.520;-1.330;2023-04-06T08:01:11;100407.41;;;10.76;100.00
48796;BME280;34607;48.520;-1.330;2023-04-06T08:03:39;100401.38;;;10.79;100.00
48796;BME280;34607;48.520;-1.330;2023-04-06T08:06:06;100389.31;;;10.81;100.00
48796;BME280;34607;48.520;-1.330;2023-04-06T08:08:34;100385.09;;;10.87;100.00
48796;BME280;34607;48.520;-1.330;2023-04-06T08:11:02;100396.66;;;11.08;100.00
48796;BME280;34607;48.520;-1.330;2023-04-06T08:13:29;100398.59;;;11.23;100.00
48796;BME280;34607;48.520;-1.330;2023-04-06T08:15:57;100394.63;;;11.48;100.00
48796;BME280;34607;48.520;-1.330;2023-04-06T08:18:25;100371.50;;;11.65;100.00
48796;BME280;34607;48.520;-1.330;2023-04-06T08:20:52;100383.22;;;12.06;100.00
48796;BME280;34607;48.520;-1.330;2023-04-06T08:23:21;100385.03;;;12.13;100.00
48796;BME280;34607;48.520;-1.330;2023-04-06T08:25:50;100381.69;;;12.20;100.00
48796;BME280;34607;48.520;-1.330;2023-04-06T08:28:21;100390.31;;;12.19;99.88
48796;BME280;34607;48.520;-1.330;2023-04-06T08:30:48;100383.31;;;12.12;99.28
48796;BME280;34607;48.520;-1.330;2023-04-06T08:33:15;100378.94;;;12.09;99.48
48796;BME280;34607;48.520;-1.330;2023-04-06T08:35:42;100374.75;;;12.21;99.15
48796;BME280;34607;48.520;-1.330;2023-04-06T08:38:09;100387.03;;;12.35;98.69
48796;BME280;34607;48.520;-1.330;2023-04-06T08:40:37;100370.56;;;12.36;97.67
48796;BME280;34607;48.520;-1.330;2023-04-06T08:43:09;100373.34;;;12.57;97.51
48796;BME280;34607;48.520;-1.330;2023-04-06T08:45:38;100401.19;;;12.71;96.73
48796;BME280;34607;48.520;-1.330;2023-04-06T08:48:06;100402.91;;;12.72;96.18
48796;BME280;34607;48.520;-1.330;2023-04-06T08:50:34;100411.66;;;12.81;95.83
48796;BME280;34607;48.520;-1.330;2023-04-06T08:53:01;100416.06;;;12.92;95.61
48796;BME280;34607;48.520;-1.330;2023-04-06T08:55:28;100424.81;;;13.01;95.33
48796;BME280;34607;48.520;-1.330;2023-04-06T08:57:56;100418.81;;;13.09;95.06
48796;BME280;34607;48.520;-1.330;2023-04-06T09:00:24;100415.31;;;13.10;94.76
48796;BME280;34607;48.520;-1.330;2023-04-06T09:02:54;100432.75;;;13.24;95.11
48796;BME280;34607;48.520;-1.330;2023-04-06T09:05:25;100428.53;;;13.38;94.98
48796;BME280;34607;48.520;-1.330;2023-04-06T09:07:52;100433.84;;;13.55;95.06
48796;BME280;34607;48.520;-1.330;2023-04-06T09:10:20;100425.22;;;13.62;94.40
48796;BME280;34607;48.520;-1.330;2023-04-06T09:12:49;100424.41;;;13.71;93.61
48796;BME280;34607;48.520;-1.330;2023-04-06T09:15:21;100426.22;;;13.94;93.35
48796;BME280;34607;48.520;-1.330;2023-04-06T09:17:48;100431.50;;;14.14;92.72
48796;BME280;34607;48.520;-1.330;2023-04-06T09:20:22;100428.91;;;14.14;91.70
48796;BME280;34607;48.520;-1.330;2023-04-06T09:22:51;100440.19;;;14.14;91.41
48796;BME280;34607;48.520;-1.330;2023-04-06T09:25:19;100445.41;;;14.23;91.23
48796;BME280;34607;48.520;-1.330;2023-04-06T09:27:48;100438.50;;;14.35;91.41
48796;BME280;34607;48.520;-1.330;2023-04-06T09:30:26;100427.19;;;14.37;91.50
48796;BME280;34607;48.520;-1.330;2023-04-06T09:32:54;100435.88;;;14.32;90.14
48796;BME280;34607;48.520;-1.330;2023-04-06T09:35:24;100441.91;;;14.17;88.91
48796;BME280;34607;48.520;-1.330;2023-04-06T09:37:52;100447.16;;;14.26;89.52
48796;BME280;34607;48.520;-1.330;2023-04-06T09:40:21;100443.63;;;14.07;87.91
48796;BME280;34607;48.520;-1.330;2023-04-06T09:42:50;100438.44;;;14.07;86.39
48796;BME280;34607;48.520;-1.330;2023-04-06T09:45:20;100452.38;;;14.34;85.79
48796;BME280;34607;48.520;-1.330;2023-04-06T09:47:47;100460.03;;;13.89;84.13
48796;BME280;34607;48.520;-1.330;2023-04-06T09:50:15;100466.94;;;13.84;83.94
48796;BME280;34607;48.520;-1.330;2023-04-06T09:52:47;100465.94;;;13.59;84.31
48796;BME280;34607;48.520;-1.330;2023-04-06T09:55:22;100469.34;;;13.48;85.22
48796;BME280;34607;48.520;-1.330;2023-04-06T09:57:53;100469.09;;;13.13;86.28
48796;BME280;34607;48.520;-1.330;2023-04-06T10:00:24;100469.75;;;12.87;88.70
48796;BME280;34607;48.520;-1.330;2023-04-06T10:02:58;100460.19;;;12.82;89.94
48796;BME280;34607;48.520;-1.330;2023-04-06T10:05:30;100454.19;;;12.92;90.46
48796;BME280;34607;48.520;-1.330;2023-04-06T10:08:05;100458.59;;;13.01;91.09
48796;BME280;34607;48.520;-1.330;2023-04-06T10:10:33;100451.69;;;13.04;91.58
48796;BME280;34607;48.520;-1.330;2023-04-06T10:13:00;100447.34;;;13.03;92.42
48796;BME280;34607;48.520;-1.330;2023-04-06T10:15:28;100444.03;;;13.21;92.45
48796;BME280;34607;48.520;-1.330;2023-04-06T10:17:56;100439.03;;;13.55;91.99
48796;BME280;34607;48.520;-1.330;2023-04-06T10:20:27;100444.28;;;13.61;89.99
48796;BME280;34607;48.520;-1.330;2023-04-06T10:22:59;100440.81;;;13.58;90.55
48796;BME280;34607;48.520;-1.330;2023-04-06T10:25:31;100448.63;;;13.65;88.97
48796;BME280;34607;48.520;-1.330;2023-04-06T10:28:02;100441.72;;;13.71;87.41
48796;BME280;34607;48.520;-1.330;2023-04-06T10:30:32;100439.31;;;14.20;86.63
48796;BME280;34607;48.520;-1.330;2023-04-06T10:32:59;100446.44;;;14.86;85.55
48796;BME280;34607;48.520;-1.330;2023-04-06T10:35:36;100435.13;;;15.10;81.90
48796;BME280;34607;48.520;-1.330;2023-04-06T10:38:04;100423.78;;;15.19;81.52
48796;BME280;34607;48.520;-1.330;2023-04-06T10:40:35;100435.94;;;15.40;82.01
48796;BME280;34607;48.520;-1.330;2023-04-06T10:43:10;100430.47;;;16.15;80.26
48796;BME280;34607;48.520;-1.330;2023-04-06T10:45:39;100439.97;;;16.24;78.82
48796;BME280;34607;48.520;-1.330;2023-04-06T10:48:13;100444.44;;;16.08;76.05
48796;BME280;34607;48.520;-1.330;2023-04-06T10:50:42;100468.06;;;15.60;77.89
48796;BME280;34607;48.520;-1.330;2023-04-06T10:53:10;100460.22;;;15.62;78.50
48796;BME280;34607;48.520;-1.330;2023-04-06T10:55:40;100470.72;;;15.28;77.99
48796;BME280;34607;48.520;-1.330;2023-04-06T10:58:07;100470.75;;;15.00;78.29
48796;BME280;34607;48.520;-1.330;2023-04-06T11:00:44;100465.53;;;14.91;77.83
48796;BME280;34607;48.520;-1.330;2023-04-06T11:03:11;100477.72;;;15.01;77.27
48796;BME280;34607;48.520;-1.330;2023-04-06T11:05:38;100471.59;;;15.01;77.53
48796;BME280;34607;48.520;-1.330;2023-04-06T11:08:05;100467.28;;;14.96;77.56
48796;BME280;34607;48.520;-1.330;2023-04-06T11:10:34;100472.47;;;14.81;78.41
48796;BME280;34607;48.520;-1.330;2023-04-06T11:13:02;100472.47;;;15.07;78.86
48796;BME280;34607;48.520;-1.330;2023-04-06T11:15:34;100468.13;;;14.86;76.82
48796;BME280;34607;48.520;-1.330;2023-04-06T11:18:03;100470.75;;;14.91;77.62
48796;BME280;34607;48.520;-1.330;2023-04-06T11:20:31;100473.34;;;15.26;77.37
48796;BME280;34607;48.520;-1.330;2023-04-06T11:22:58;100470.72;;;15.40;76.73
48796;BME280;34607;48.520;-1.330;2023-04-06T11:25:25;100467.22;;;15.38;77.06
48796;BME280;34607;48.520;-1.330;2023-04-06T11:27:53;100470.72;;;15.25;76.71
48796;BME280;34607;48.520;-1.330;2023-04-06T11:30:22;100465.53;;;15.22;76.64
48796;BME280;34607;48.520;-1.330;2023-04-06T11:32:49;100467.25;;;15.04;76.74
48796;BME280;34607;48.520;-1.330;2023-04-06T11:35:20;100458.56;;;14.99;77.16
48796;BME280;34607;48.520;-1.330;2023-04-06T11:37:48;100463.78;;;14.99;77.01
48796;BME280;34607;48.520;-1.330;2023-04-06T11:40:16;100457.72;;;14.74;77.29
48796;BME280;34607;48.520;-1.330;2023-04-06T11:42:52;100452.44;;;14.55;77.17
48796;BME280;34607;48.520;-1.330;2023-04-06T11:45:19;100455.09;;;14.72;77.52
48796;BME280;34607;48.520;-1.330;2023-04-06T11:47:56;100444.66;;;14.60;77.16
48796;BME280;34607;48.520;-1.330;2023-04-06T11:50:25;100442.00;;;14.55;78.29
48796;BME280;34607;48.520;-1.330;2023-04-06T11:52:59;100438.56;;;14.64;78.98
48796;BME280;34607;48.520;-1.330;2023-04-06T11:55:27;100436.84;;;14.83;79.08
48796;BME280;34607;48.520;-1.330;2023-04-06T11:57:54;100422.03;;;15.41;78.63
48796;BME280;34607;48.520;-1.330;2023-04-06T12:00:21;100428.00;;;15.69;77.56
48796;BME280;34607;48.520;-1.330;2023-04-06T12:02:50;100425.41;;;15.70;76.90
48796;BME280;34607;48.520;-1.330;2023-04-06T12:05:17;100428.91;;;15.63;77.10
48796;BME280;34607;48.520;-1.330;2023-04-06T12:07:44;100426.16;;;16.06;77.14
48796;BME280;34607;48.520;-1.330;2023-04-06T12:10:12;100427.81;;;16.23;76.54
48796;BME280;34607;48.520;-1.330;2023-04-06T12:12:39;100433.06;;;16.20;74.87
48796;BME280;34607;48.520;-1.330;2023-04-06T12:15:07;100430.47;;;16.12;74.84
48796;BME280;34607;48.520;-1.330;2023-04-06T12:17:34;100438.38;;;15.94;74.90
48796;BME280;34607;48.520;-1.330;2023-04-06T12:20:04;100448.06;;;15.53;76.48
48796;BME280;34607;48.520;-1.330;2023-04-06T12:22:32;100449.88;;;15.19;77.16
48796;BME280;34607;48.520;-1.330;2023-04-06T12:24:59;100441.19;;;14.92;76.12
48796;BME280;34607;48.520;-1.330;2023-04-06T12:27:26;100448.16;;;14.93;76.18
48796;BME280;34607;48.520;-1.330;2023-04-06T12:29:53;100448.16;;;14.76;75.97
48796;BME280;34607;48.520;-1.330;2023-04-06T12:32:21;100443.72;;;14.47;76.68
48796;BME280;34607;48.520;-1.330;2023-04-06T12:34:48;100451.56;;;14.55;77.43
48796;BME280;34607;48.520;-1.330;2023-04-06T12:37:17;100462.88;;;14.61;77.84
48796;BME280;34607;48.520;-1.330;2023-04-06T12:39:46;100463.78;;;14.64;77.34
48796;BME280;34607;48.520;-1.330;2023-04-06T12:42:16;100463.78;;;14.65;77.16
48796;BME280;34607;48.520;-1.330;2023-04-06T12:44:43;100467.25;;;14.75;76.48
48796;BME280;34607;48.520;-1.330;2023-04-06T12:47:10;100463.78;;;14.88;76.09
48796;BME280;34607;48.520;-1.330;2023-04-06T12:49:38;100458.56;;;14.88;77.66
48796;BME280;34607;48.520;-1.330;2023-04-06T12:52:05;100463.78;;;14.99;77.98